Time;durP1;ratioP1;P1;durP2;ratioP2;P2;SDS_P1;SDS_P2;PMS_P1;PMS_P2;Temp;Humidity;BMP_temperature;BMP_pressure;BME280_temperature;BME280_humidity;BME280_pressure;Samples;Min_cycle;Max_cycle;Signal;HPM_P1;HPM_P2
2023/07/03 00:01:44;;;;;;;17.30;15.60;;;;;;;20.73;64.82;94296.44;4213918;28;20130;-58
2023/07/03 00:03:46;;;;;;;17.75;15.98;;;;;;;20.75;64.63;94290.88;4201019;28;20048;-58
2023/07/03 00:05:48;;;;;;;18.23;16.42;;;;;;;20.73;64.87;94298.28;4200042;28;20048;-57
2023/07/03 00:07:51;;;;;;;17.08;15.20;;;;;;;20.62;64.97;94291.91;4206578;28;20041;-57
2023/07/03 00:09:53;;;;;;;18.27;16.50;;;;;;;20.62;65.27;94291.91;4198321;28;20138;-58
2023/07/03 00:11:54;;;;;;;17.40;15.73;;;;;;;20.63;64.90;94285.56;4197320;28;20140;-59
2023/07/03 00:13:56;;;;;;;17.75;15.95;;;;;;;20.64;65.12;94293.31;4198614;28;20102;-59
2023/07/03 00:16:02;;;;;;;17.83;16.08;;;;;;;20.63;64.93;94285.56;4201417;28;20135;-59
2023/07/03 00:18:04;;;;;;;17.48;15.68;;;;;;;20.62;64.94;94294.56;4208960;28;20478;-59
2023/07/03 00:20:07;;;;;;;17.95;16.25;;;;;;;20.63;65.04;94289.03;4212578;28;20135;-60
2023/07/03 00:22:09;;;;;;;17.83;16.03;;;;;;;20.66;64.89;94291.22;4212494;28;20089;-57
2023/07/03 00:24:11;;;;;;;18.77;16.88;;;;;;;20.66;65.06;94296.53;4211920;28;20781;-56
2023/07/03 00:26:12;;;;;;;17.13;15.38;;;;;;;20.66;64.83;94293.88;4213614;28;20050;-57
2023/07/03 00:28:14;;;;;;;18.65;16.23;;;;;;;20.62;65.18;94292.72;4205722;28;20135;-59
2023/07/03 00:30:16;;;;;;;17.55;15.95;;;;;;;20.68;65.13;94295.50;4207003;28;20052;-58
2023/07/03 00:32:18;;;;;;;17.02;15.43;;;;;;;20.63;64.92;94298.88;4206244;28;20056;-57
2023/07/03 00:34:19;;;;;;;18.13;16.25;;;;;;;20.60;65.25;94294.81;4213066;28;20044;-58
2023/07/03 00:36:21;;;;;;;17.15;15.55;;;;;;;20.59;65.39;94295.06;4207438;28;20391;-58
2023/07/03 00:38:23;;;;;;;18.58;16.80;;;;;;;20.58;65.30;94301.41;4203324;28;20052;-58
2023/07/03 00:40:24;;;;;;;18.33;16.50;;;;;;;20.48;65.63;94303.78;4205648;28;20494;-59
2023/07/03 00:42:28;;;;;;;18.85;17.05;;;;;;;20.45;65.82;94303.19;4210252;28;20467;-62
2023/07/03 00:44:30;;;;;;;18.92;17.00;;;;;;;20.48;66.21;94301.97;4211848;28;20048;-59
2023/07/03 00:46:31;;;;;;;19.20;17.20;;;;;;;20.50;65.92;94301.72;4200555;28;20048;-59
2023/07/03 00:48:34;;;;;;;18.90;17.10;;;;;;;20.46;65.92;94301.38;4211488;28;20048;-58
2023/07/03 00:50:35;;;;;;;17.98;16.27;;;;;;;20.52;65.92;94302.28;4200730;28;20052;-59
2023/07/03 00:52:38;;;;;;;18.83;17.00;;;;;;;20.52;65.92;94304.94;4208268;28;20071;-58
2023/07/03 00:54:40;;;;;;;19.52;17.40;;;;;;;20.56;65.79;94309.56;4212988;28;20136;-59
2023/07/03 00:56:42;;;;;;;18.25;16.55;;;;;;;20.52;65.65;94307.59;4213148;28;20044;-58
2023/07/03 00:58:43;;;;;;;19.77;17.67;;;;;;;20.46;65.98;94307.50;4212588;28;20125;-59
2023/07/03 01:00:55;;;;;;;18.92;17.15;;;;;;;20.46;65.89;94307.50;4199478;28;20055;-60
2023/07/03 01:03:32;;;;;;;19.77;17.88;;;;;;;20.39;66.35;94306.81;4204698;28;20059;-60
2023/07/03 01:05:41;;;;;;;18.60;16.70;;;;;;;20.39;66.50;94306.81;4182081;28;20072;-58
2023/07/03 01:07:44;;;;;;;19.10;17.05;;;;;;;20.31;66.87;94315.13;4212245;28;20359;-56
2023/07/03 01:09:49;;;;;;;19.97;17.97;;;;;;;20.30;66.53;94305.50;4204887;28;20105;-61
2023/07/03 01:11:51;;;;;;;19.67;17.58;;;;;;;20.33;66.57;94301.59;4210768;28;20302;-61
2023/07/03 01:13:57;;;;;;;20.73;18.75;;;;;;;20.29;66.86;94308.41;4210226;28;20060;-57
2023/07/03 01:16:01;;;;;;;20.10;18.20;;;;;;;20.31;66.89;94307.13;4210169;28;20131;-57
2023/07/03 01:18:05;;;;;;;20.08;18.08;;;;;;;20.30;66.72;94304.69;4211056;28;20048;-57
2023/07/03 01:20:10;;;;;;;20.95;18.77;;;;;;;20.34;66.66;94304.00;4211221;28;20048;-58
2023/07/03 01:22:12;;;;;;;19.50;17.60;;;;;;;20.31;66.84;94312.47;4208590;28;20138;-57
2023/07/03 01:24:27;;;;;;;20.27;18.38;;;;;;;20.35;66.67;94302.16;4201683;28;20048;-58
2023/07/03 01:26:30;;;;;;;20.90;18.90;;;;;;;20.30;66.72;94305.50;4207833;28;20055;-58
2023/07/03 01:28:32;;;;;;;21.13;19.13;;;;;;;20.27;66.95;94313.94;4204490;28;20044;-57
2023/07/03 01:30:34;;;;;;;20.52;18.42;;;;;;;20.23;67.13;94316.25;4209449;28;20048;-56
2023/07/03 01:32:37;;;;;;;19.92;18.13;;;;;;;20.23;67.19;94310.13;4207773;28;20144;-57
2023/07/03 01:34:45;;;;;;;20.85;18.13;;;;;;;20.27;66.75;94313.94;4208799;28;20047;-59
2023/07/03 01:36:47;;;;;;;21.83;19.30;;;;;;;20.27;67.05;94305.16;4210132;28;20044;-59
2023/07/03 01:38:49;;;;;;;20.20;18.15;;;;;;;20.23;67.10;94307.47;4211182;28;20048;-58
2023/07/03 01:40:53;;;;;;;21.20;19.08;;;;;;;20.26;67.12;94304.34;4207748;28;20047;-60
2023/07/03 01:42:55;;;;;;;20.02;18.05;;;;;;;20.29;67.05;94308.41;4204149;28;20506;-59
2023/07/03 01:44:57;;;;;;;21.10;19.05;;;;;;;20.29;66.95;94306.56;4207063;28;20139;-59
2023/07/03 01:47:07;;;;;;;22.08;19.98;;;;;;;20.29;66.90;94306.56;4211525;28;20044;-58
2023/07/03 01:49:13;;;;;;;21.55;19.45;;;;;;;20.27;66.92;94303.31;4212445;28;20048;-56
2023/07/03 01:51:20;;;;;;;21.58;19.40;;;;;;;20.20;67.21;94303.41;4200413;28;20048;-59
2023/07/03 01:53:31;;;;;;;21.05;19.00;;;;;;;20.18;67.32;94307.34;4208518;28;20055;-61
2023/07/03 01:55:44;;;;;;;21.30;19.17;;;;;;;20.13;67.62;94309.88;4210648;28;20139;-59
2023/07/03 01:57:56;;;;;;;22.05;19.95;;;;;;;20.04;67.79;94302.22;4208590;28;20280;-58
2023/07/03 02:00:00;;;;;;;21.67;19.60;;;;;;;20.09;67.70;94308.69;4210844;28;20063;-60
2023/07/03 02:02:09;;;;;;;24.05;19.15;;;;;;;20.11;67.60;94317.25;4198946;28;20376;-58
2023/07/03 02:04:18;;;;;;;21.17;18.98;;;;;;;20.07;67.77;94321.41;4199060;28;20044;-56
2023/07/03 02:06:27;;;;;;;22.75;20.65;;;;;;;20.05;67.85;94317.13;4210317;28;20694;-57
2023/07/03 02:08:30;;;;;;;21.25;19.02;;;;;;;20.11;67.89;94311.94;4200210;28;20051;-56
2023/07/03 02:10:31;;;;;;;21.73;19.52;;;;;;;20.13;67.91;94320.50;4203592;28;20399;-57
2023/07/03 02:12:33;;;;;;;20.98;18.83;;;;;;;20.15;67.82;94313.91;4193127;28;20079;-58
2023/07/03 02:14:35;;;;;;;20.92;18.92;;;;;;;20.17;68.12;94313.69;4196606;28;20056;-59
2023/07/03 02:16:38;;;;;;;21.45;19.45;;;;;;;20.19;67.62;94314.28;4208460;28;20178;-55
2023/07/03 02:18:40;;;;;;;;;;;;;;;20.15;67.91;94310.44;4202743;28;20129;-57
2023/07/03 02:20:42;;;;;;;21.15;19.13;;;;;;;20.13;67.94;94321.31;4203143;28;19924;-55
2023/07/03 02:22:43;;;;;;;20.70;18.70;;;;;;;20.15;67.96;94323.75;4199748;28;20076;-58
2023/07/03 02:24:45;;;;;;;21.25;19.05;;;;;;;20.13;68.18;94318.66;4203474;28;20044;-55
2023/07/03 02:26:47;;;;;;;19.70;17.80;;;;;;;20.16;68.13;94325.38;4202880;28;20054;-57
2023/07/03 02:28:49;;;;;;;20.05;18.15;;;;;;;20.18;68.08;94325.97;4203255;28;20040;-56
2023/07/03 02:30:50;;;;;;;20.63;18.52;;;;;;;20.12;68.18;94327.66;4200273;28;20865;-58
2023/07/03 02:32:52;;;;;;;20.30;18.35;;;;;;;20.14;68.39;94335.44;4208670;28;20094;-56
2023/07/03 02:34:54;;;;;;;19.50;17.58;;;;;;;20.16;68.22;94336.81;4206180;28;20105;-60
2023/07/03 02:36:58;;;;;;;20.83;18.80;;;;;;;20.17;68.31;94333.09;4208379;28;20055;-57
2023/07/03 02:39:01;;;;;;;19.67;17.70;;;;;;;20.14;68.41;94335.44;4202366;28;20095;-58
2023/07/03 02:41:03;;;;;;;19.40;17.50;;;;;;;20.15;68.91;94337.03;4204574;28;20053;-59
2023/07/03 02:43:04;;;;;;;19.17;17.27;;;;;;;20.09;68.54;94340.59;4194387;28;20140;-57
2023/07/03 02:45:07;;;;;;;18.83;17.00;;;;;;;20.14;68.70;94338.09;4195616;28;20072;-59
2023/07/03 02:47:08;;;;;;;20.80;18.42;;;;;;;20.12;68.94;94348.16;4196177;28;20106;-57
2023/07/03 02:49:10;;;;;;;21.45;19.35;;;;;;;20.18;68.79;94344.56;4207507;28;20135;-57
2023/07/03 02:51:12;;;;;;;21.77;19.58;;;;;;;20.18;68.61;94341.91;4196172;28;20382;-57
2023/07/03 02:53:14;;;;;;;19.95;18.00;;;;;;;20.19;68.86;94348.84;4195228;28;20048;-55
2023/07/03 02:55:16;;;;;;;21.08;18.88;;;;;;;20.21;68.72;94344.91;4196168;28;20403;-59
2023/07/03 02:57:18;;;;;;;20.05;18.15;;;;;;;20.21;68.71;94349.44;4195501;28;20045;-55
2023/07/03 02:59:19;;;;;;;20.45;18.50;;;;;;;20.24;68.72;94346.31;4196311;28;20059;-56
2023/07/03 03:01:21;;;;;;;20.30;18.40;;;;;;;20.25;68.20;94340.75;4201677;28;20052;-58
2023/07/03 03:03:24;;;;;;;19.95;18.05;;;;;;;20.32;68.51;94350.50;4201349;28;20499;-57
2023/07/03 03:05:26;;;;;;;20.10;18.10;;;;;;;20.31;68.55;94346.22;4208333;28;20086;-54
2023/07/03 03:07:28;;;;;;;20.77;18.65;;;;;;;20.30;68.55;94350.72;4200289;28;20394;-55
2023/07/03 03:09:30;;;;;;;20.77;18.67;;;;;;;20.28;68.75;94350.13;4201066;28;20058;-57
2023/07/03 03:11:32;;;;;;;20.42;18.42;;;;;;;20.29;68.91;94353.63;4207409;28;20471;-58
2023/07/03 03:13:34;;;;;;;21.15;18.95;;;;;;;20.32;68.53;94353.16;4206437;28;20484;-58
2023/07/03 03:15:36;;;;;;;20.77;18.75;;;;;;;20.35;68.31;94348.19;4207638;28;20190;-55
2023/07/03 03:17:37;;;;;;;21.45;19.25;;;;;;;20.34;68.39;94356.41;4207330;28;20473;-57
2023/07/03 03:19:39;;;;;;;20.58;18.55;;;;;;;20.37;68.28;94359.44;4211098;28;20570;-58
2023/07/03 03:21:41;;;;;;;20.00;17.98;;;;;;;20.39;68.17;94354.69;4207650;28;20070;-56
2023/07/03 03:23:42;;;;;;;20.75;18.65;;;;;;;20.41;68.15;94357.94;4210017;28;20055;-57
2023/07/03 03:25:44;;;;;;;20.63;18.52;;;;;;;20.35;68.51;94360.66;4210693;28;20048;-55
2023/07/03 03:27:46;;;;;;;20.10;18.05;;;;;;;20.34;68.57;94359.06;4202885;28;20060;-54
2023/07/03 03:29:50;;;;;;;20.80;18.73;;;;;;;20.28;68.80;94359.97;4211499;28;20048;-57
2023/07/03 03:31:52;;;;;;;21.25;19.13;;;;;;;20.30;68.59;94355.22;4207783;28;20739;-56
2023/07/03 03:33:54;;;;;;;21.05;18.63;;;;;;;20.31;68.90;94352.34;4200307;28;20125;-58
2023/07/03 03:35:55;;;;;;;21.05;18.77;;;;;;;20.34;68.74;94354.56;4200108;28;20478;-56
2023/07/03 03:37:57;;;;;;;20.08;18.08;;;;;;;20.29;68.77;94364.28;4209856;28;20866;-57
2023/07/03 03:39:59;;;;;;;21.05;18.95;;;;;;;20.27;69.33;94361.81;4210442;28;20076;-54
2023/07/03 03:42:01;;;;;;;19.80;17.90;;;;;;;20.31;69.04;94363.00;4197112;28;20167;-60
2023/07/03 03:44:03;;;;;;;22.05;19.85;;;;;;;20.33;69.02;94365.44;4208950;28;20395;-55
2023/07/03 03:46:04;;;;;;;20.60;18.50;;;;;;;20.38;68.88;94368.22;4198962;28;20056;-56
2023/07/03 03:48:06;;;;;;;19.13;17.33;;;;;;;20.35;68.88;94358.84;4198270;28;20044;-56
2023/07/03 03:50:08;;;;;;;20.45;18.25;;;;;;;20.34;69.29;94367.03;4199135;28;20060;-58
2023/07/03 03:52:10;;;;;;;21.48;18.42;;;;;;;20.34;69.02;94364.38;4197869;28;20052;-56
2023/07/03 03:54:11;;;;;;;19.60;17.67;;;;;;;20.36;68.97;94367.63;4208678;28;20051;-57
2023/07/03 03:56:14;;;;;;;21.38;19.13;;;;;;;20.35;69.16;94371.31;4212081;28;20052;-57
2023/07/03 03:58:17;;;;;;;20.88;18.58;;;;;;;20.40;69.21;94374.91;4204974;28;20076;-57
2023/07/03 04:00:20;;;;;;;20.83;18.73;;;;;;;20.43;69.19;94379.81;4210482;28;20504;-57
2023/07/03 04:02:21;;;;;;;23.15;18.88;;;;;;;20.46;69.26;94374.00;4212027;28;20075;-59
2023/07/03 04:04:23;;;;;;;20.10;18.00;;;;;;;20.48;69.25;94387.09;4212952;28;20521;-59
2023/07/03 04:06:26;;;;;;;20.65;18.45;;;;;;;20.47;69.25;94382.81;4211663;28;20055;-59
2023/07/03 04:08:27;;;;;;;20.45;18.50;;;;;;;20.50;69.31;94379.69;4204696;28;20131;-55
2023/07/03 04:10:29;;;;;;;20.13;18.02;;;;;;;20.51;69.23;94383.16;4198505;28;20662;-58
2023/07/03 04:12:31;;;;;;;19.40;17.42;;;;;;;20.60;69.06;94387.94;4205365;28;20059;-54
2023/07/03 04:14:33;;;;;;;21.02;18.52;;;;;;;20.59;69.13;94381.00;4208168;28;20075;-56
2023/07/03 04:16:34;;;;;;;19.95;17.95;;;;;;;20.66;69.20;94396.88;4210774;28;20056;-57
2023/07/03 04:18:37;;;;;;;20.90;18.73;;;;;;;20.65;69.14;94387.28;4206950;28;21543;-58
2023/07/03 04:20:38;;;;;;;23.23;18.85;;;;;;;20.73;69.26;94392.25;4208459;28;20078;-57
2023/07/03 04:22:41;;;;;;;20.45;17.48;;;;;;;20.76;68.97;94383.81;4205062;28;20047;-58
2023/07/03 04:24:43;;;;;;;20.80;18.60;;;;;;;20.75;69.05;94390.16;4213626;28;20052;-59
2023/07/03 04:26:44;;;;;;;20.85;18.35;;;;;;;20.83;68.73;94395.16;4199551;28;20753;-60
2023/07/03 04:28:46;;;;;;;21.38;18.25;;;;;;;20.89;68.67;94396.09;4213158;28;20043;-60
2023/07/03 04:30:48;;;;;;;19.73;17.92;;;;;;;20.86;68.67;94393.88;4211071;28;20044;-59
2023/07/03 04:32:54;;;;;;;19.45;16.58;;;;;;;20.76;68.85;94404.31;4207663;28;20040;-59
2023/07/03 04:34:57;;;;;;;20.77;17.58;;;;;;;20.77;68.84;94401.41;4207484;28;20079;-60
2023/07/03 04:36:59;;;;;;;19.08;17.17;;;;;;;20.72;69.11;94411.94;4212218;28;20054;-59
2023/07/03 04:39:00;;;;;;;19.27;17.40;;;;;;;20.71;68.96;94412.16;4210253;28;20047;-59
2023/07/03 04:41:02;;;;;;;19.77;17.80;;;;;;;20.74;69.26;94411.72;4201583;28;20048;-61
2023/07/03 04:43:07;;;;;;;20.80;18.73;;;;;;;20.66;69.10;94402.19;4207993;28;20044;-61
2023/07/03 04:45:10;;;;;;;19.60;17.50;;;;;;;20.61;69.46;94408.22;4208418;28;20055;-59
2023/07/03 04:47:16;;;;;;;20.30;17.63;;;;;;;20.73;69.26;94407.41;4211202;28;20051;-61
2023/07/03 04:49:18;;;;;;;19.20;17.35;;;;;;;20.70;68.87;94403.38;4205880;28;20036;-59
2023/07/03 04:51:20;;;;;;;22.35;18.00;;;;;;;20.84;68.68;94414.59;4203816;28;20058;-58
2023/07/03 04:53:23;;;;;;;21.30;17.58;;;;;;;21.03;67.92;94408.13;4204862;28;20052;-61
2023/07/03 04:55:24;;;;;;;19.33;17.35;;;;;;;21.07;67.38;94411.16;4212694;28;20120;-60
2023/07/03 04:57:26;;;;;;;19.25;16.50;;;;;;;21.08;67.66;94407.47;4197544;28;20143;-59
2023/07/03 04:59:28;;;;;;;19.15;17.15;;;;;;;21.10;67.50;94420.53;4197352;28;20041;-60
2023/07/03 05:01:30;;;;;;;18.85;17.02;;;;;;;21.14;67.51;94417.16;4209953;28;20048;-60
2023/07/03 05:03:32;;;;;;;19.45;16.38;;;;;;;21.22;67.53;94419.50;4197062;28;20052;-61
2023/07/03 05:05:34;;;;;;;26.52;17.35;;;;;;;21.28;67.43;94423.91;4199959;28;20079;-62
2023/07/03 05:07:36;;;;;;;19.13;16.70;;;;;;;21.34;66.68;94421.34;4202673;28;20538;-61
2023/07/03 05:09:38;;;;;;;19.45;16.80;;;;;;;21.46;66.67;94424.84;4204378;28;20053;-61
2023/07/03 05:11:40;;;;;;;18.48;16.63;;;;;;;21.46;66.68;94422.97;4212311;28;20132;-59
2023/07/03 05:13:41;;;;;;;18.08;16.27;;;;;;;21.55;66.21;94426.09;4211979;28;20448;-60
2023/07/03 05:15:43;;;;;;;18.27;16.38;;;;;;;21.47;66.62;94429.16;4209484;28;20051;-61
2023/07/03 05:17:50;;;;;;;18.88;16.92;;;;;;;21.55;66.23;94433.28;4208701;28;20482;-59
2023/07/03 05:19:52;;;;;;;18.75;16.83;;;;;;;21.70;65.95;94432.81;4202048;28;20178;-60
2023/07/03 05:21:54;;;;;;;19.13;17.17;;;;;;;21.48;66.43;94428.09;4195666;28;20056;-60
2023/07/03 05:23:56;;;;;;;19.83;16.75;;;;;;;21.58;66.51;94436.31;4208335;28;20056;-59
2023/07/03 05:25:57;;;;;;;18.52;16.58;;;;;;;21.66;66.21;94425.28;4203052;28;20050;-62
2023/07/03 05:27:59;;;;;;;20.27;17.42;;;;;;;21.71;66.08;94431.78;4196474;28;20471;-61
2023/07/03 05:30:02;;;;;;;19.27;16.63;;;;;;;21.61;66.02;94427.84;4212290;28;20052;-60
2023/07/03 05:32:04;;;;;;;18.33;16.52;;;;;;;21.63;66.46;94431.06;4205995;28;20055;-62
2023/07/03 05:34:06;;;;;;;17.17;15.50;;;;;;;21.61;66.22;94437.69;4209315;28;20563;-60
2023/07/03 05:36:07;;;;;;;17.70;15.80;;;;;;;21.59;66.15;94445.91;4212379;28;20044;-61
2023/07/03 05:38:09;;;;;;;18.80;16.80;;;;;;;21.59;66.55;94442.44;4205552;28;20049;-62
2023/07/03 05:40:14;;;;;;;17.90;16.00;;;;;;;21.54;66.27;94437.81;4212326;28;20055;-61
2023/07/03 05:42:17;;;;;;;18.42;16.45;;;;;;;21.48;66.25;94439.53;4208155;28;20126;-61
2023/07/03 05:44:19;;;;;;;18.42;16.25;;;;;;;21.52;66.46;94444.44;4200913;28;20048;-62
2023/07/03 05:46:20;;;;;;;18.58;16.67;;;;;;;21.63;66.55;94447.06;4198353;28;20047;-58
2023/07/03 05:48:23;;;;;;;17.33;15.65;;;;;;;21.62;66.47;94452.66;4201524;28;20090;-62
2023/07/03 05:50:25;;;;;;;18.17;16.27;;;;;;;21.83;66.48;94453.88;4198892;28;20615;-58
2023/07/03 05:52:26;;;;;;;16.27;14.57;;;;;;;21.99;65.65;94439.81;4202216;28;20241;-58
2023/07/03 05:54:28;;;;;;;17.40;15.60;;;;;;;21.84;65.47;94458.19;4199677;28;20101;-57
2023/07/03 05:56:30;;;;;;;15.98;14.38;;;;;;;21.85;65.28;94447.28;4208444;28;20081;-56
2023/07/03 05:58:32;;;;;;;16.75;15.13;;;;;;;21.98;65.19;94442.72;4207066;28;20044;-58
2023/07/03 06:00:34;;;;;;;17.52;15.55;;;;;;;22.03;65.08;94443.63;4212197;28;20052;-62
2023/07/03 06:02:35;;;;;;;17.30;15.48;;;;;;;22.02;65.08;94443.88;4195148;28;20056;-58
2023/07/03 06:04:38;;;;;;;17.63;15.77;;;;;;;22.11;65.41;94445.09;4203567;28;20044;-59
2023/07/03 06:06:39;;;;;;;17.98;16.08;;;;;;;21.89;65.45;94450.28;4205727;28;20048;-59
2023/07/03 06:08:41;;;;;;;17.85;15.95;;;;;;;21.49;66.61;94453.72;4209519;28;20044;-57
2023/07/03 06:10:45;;;;;;;18.67;16.73;;;;;;;21.32;67.64;94442.91;4209229;28;20093;-59
2023/07/03 06:12:46;;;;;;;19.35;16.63;;;;;;;21.19;68.44;94445.81;4198847;28;20056;-57
2023/07/03 06:14:48;;;;;;;19.40;17.30;;;;;;;21.31;68.08;94443.13;4207697;28;20426;-58
2023/07/03 06:16:51;;;;;;;17.60;15.75;;;;;;;21.61;67.10;94438.50;4209604;28;20405;-60
2023/07/03 06:18:52;;;;;;;17.20;15.50;;;;;;;21.85;66.51;94449.13;4209818;28;20266;-59
2023/07/03 06:20:54;;;;;;;19.40;15.02;;;;;;;21.96;65.61;94434.13;4205752;28;20048;-59
2023/07/03 06:22:56;;;;;;;15.82;14.23;;;;;;;22.14;65.13;94433.19;4196368;28;20071;-59
2023/07/03 06:24:58;;;;;;;16.13;14.15;;;;;;;22.23;64.75;94448.59;4208435;28;20040;-60
2023/07/03 06:27:00;;;;;;;16.05;14.35;;;;;;;22.36;64.38;94444.03;4197436;28;21082;-58
2023/07/03 06:29:02;;;;;;;15.23;13.63;;;;;;;22.39;63.68;94455.03;4202982;28;20051;-59
2023/07/03 06:31:04;;;;;;;17.40;14.33;;;;;;;21.84;65.07;94450.19;4211316;28;20417;-59
2023/07/03 06:33:06;;;;;;;15.48;13.68;;;;;;;21.99;64.40;94445.16;4212103;28;20539;-61
2023/07/03 06:35:08;;;;;;;16.00;14.38;;;;;;;22.22;64.92;94448.78;4210030;28;20040;-59
2023/07/03 06:37:10;;;;;;;14.80;13.30;;;;;;;22.23;64.80;94445.09;4201665;28;20048;-55
2023/07/03 06:39:12;;;;;;;16.83;14.57;;;;;;;22.35;64.98;94453.88;4211119;28;20040;-58
2023/07/03 06:41:13;;;;;;;16.63;14.45;;;;;;;22.27;64.58;94449.72;4210925;28;20054;-57
2023/07/03 06:43:15;;;;;;;23.52;14.68;;;;;;;22.06;65.65;94445.81;4197769;28;20152;-57
2023/07/03 06:45:17;;;;;;;15.73;14.13;;;;;;;22.06;65.86;94443.16;4206029;28;20051;-59
2023/07/03 06:47:19;;;;;;;16.67;14.88;;;;;;;21.84;65.47;94460.84;4203730;28;20052;-57
2023/07/03 06:49:22;;;;;;;15.75;14.18;;;;;;;21.61;66.61;94454.47;4210926;28;20047;-61
2023/07/03 06:51:24;;;;;;;;;;;;;;;21.76;67.07;94451.34;4199567;28;20055;-56
2023/07/03 06:53:26;;;;;;;16.33;14.77;;;;;;;21.76;66.32;94458.53;4197482;28;19930;-59
2023/07/03 06:55:27;;;;;;;15.52;13.82;;;;;;;21.91;66.20;94452.72;4207036;28;20427;-60
2023/07/03 06:57:29;;;;;;;15.07;13.27;;;;;;;21.90;65.51;94454.56;4200301;28;20140;-59
2023/07/03 06:59:31;;;;;;;17.48;12.77;;;;;;;21.83;65.54;94456.53;4198503;28;20121;-59
2023/07/03 07:01:33;;;;;;;15.82;13.13;;;;;;;21.91;65.69;94458.84;4198152;28;20500;-60
2023/07/03 07:03:35;;;;;;;17.75;14.02;;;;;;;21.70;65.99;94460.28;4196514;28;20075;-58
2023/07/03 07:05:37;;;;;;;16.48;13.82;;;;;;;21.81;66.38;94451.47;4204994;28;20054;-58
2023/07/03 07:07:39;;;;;;;19.10;14.93;;;;;;;21.96;65.83;94455.47;4203241;28;20052;-59
2023/07/03 07:09:40;;;;;;;17.88;13.88;;;;;;;22.12;65.78;94448.59;4209817;28;20040;-59
2023/07/03 07:11:42;;;;;;;16.90;15.07;;;;;;;22.37;65.03;94445.63;4202199;28;20467;-58
2023/07/03 07:13:46;;;;;;;18.23;14.02;;;;;;;22.30;65.05;94445.78;4201223;28;20076;-60
2023/07/03 07:15:47;;;;;;;15.85;13.15;;;;;;;22.58;64.72;94442.28;4201223;28;20040;-60
2023/07/03 07:17:49;;;;;;;14.85;12.77;;;;;;;22.57;64.33;94445.22;4206060;28;20131;-61
2023/07/03 07:19:53;;;;;;;17.73;13.57;;;;;;;22.83;63.11;94446.47;4211008;28;20044;-60
2023/07/03 07:21:57;;;;;;;14.02;12.40;;;;;;;22.72;62.76;94447.34;4209389;28;20704;-59
2023/07/03 07:24:11;;;;;;;16.20;12.35;;;;;;;22.64;63.37;94443.19;4204028;28;20391;-59
2023/07/03 07:26:13;;;;;;;14.70;12.55;;;;;;;22.68;63.18;94447.81;4205632;28;20138;-61
2023/07/03 07:28:15;;;;;;;15.07;13.55;;;;;;;22.49;62.80;94449.88;4204552;28;20097;-58
2023/07/03 07:30:16;;;;;;;13.77;11.90;;;;;;;22.63;63.26;94455.75;4206832;28;20444;-60
2023/07/03 07:32:19;;;;;;;12.88;11.57;;;;;;;22.74;63.16;94448.72;4207506;28;20159;-58
2023/07/03 07:34:21;;;;;;;17.83;16.00;;;;;;;22.74;62.83;94453.25;4210240;28;20044;-58
2023/07/03 07:36:25;;;;;;;21.33;14.40;;;;;;;22.87;62.00;94451.06;4209996;28;20047;-59
2023/07/03 07:38:26;;;;;;;20.52;15.82;;;;;;;22.83;61.83;94455.28;4205152;28;20135;-60
2023/07/03 07:40:28;;;;;;;17.63;13.70;;;;;;;22.68;63.06;94447.81;4206197;28;20055;-58
2023/07/03 07:42:31;;;;;;;16.02;13.18;;;;;;;22.84;62.94;94456.91;4206501;28;20075;-59
2023/07/03 07:44:33;;;;;;;20.33;15.77;;;;;;;22.69;62.70;94465.47;4195183;28;20055;-57
2023/07/03 07:46:36;;;;;;;17.20;12.85;;;;;;;22.74;60.99;94463.94;4200560;28;20072;-59
2023/07/03 07:48:38;;;;;;;15.88;11.55;;;;;;;23.15;61.75;94462.78;4207097;28;20139;-59
2023/07/03 07:50:40;;;;;;;14.70;11.52;;;;;;;23.46;60.63;94465.91;4199193;28;20057;-59
2023/07/03 07:52:41;;;;;;;13.40;11.50;;;;;;;23.57;60.28;94470.34;4196859;28;20161;-56
2023/07/03 07:54:43;;;;;;;12.65;11.10;;;;;;;23.68;59.24;94464.09;4200940;28;20056;-60
2023/07/03 07:56:45;;;;;;;13.52;11.27;;;;;;;23.70;58.99;94467.34;4194485;28;20070;-58
2023/07/03 07:58:47;;;;;;;14.15;11.52;;;;;;;23.80;59.05;94468.56;4207844;28;20294;-60
2023/07/03 08:00:51;;;;;;;16.92;11.30;;;;;;;23.81;58.25;94470.16;4195843;28;20593;-60
2023/07/03 08:02:53;;;;;;;12.93;11.55;;;;;;;24.04;57.57;94475.28;4206702;28;20079;-61
2023/07/03 08:04:56;;;;;;;20.25;11.60;;;;;;;23.65;58.07;94472.59;4206791;28;20050;-60
2023/07/03 08:06:59;;;;;;;17.60;11.00;;;;;;;23.89;58.46;94475.91;4206512;28;20068;-57
2023/07/03 08:09:01;;;;;;;17.20;12.27;;;;;;;23.90;58.85;94477.53;4197548;28;20047;-60
2023/07/03 08:11:04;;;;;;;13.70;11.65;;;;;;;24.09;58.39;94477.22;4203428;28;20097;-59
2023/07/03 08:13:06;;;;;;;11.27;9.95;;;;;;;24.00;57.39;94484.06;4199187;28;20118;-60
2023/07/03 08:15:09;;;;;;;12.93;9.32;;;;;;;24.17;56.62;94474.09;4210269;28;20063;-60
2023/07/03 08:17:10;;;;;;;11.52;10.30;;;;;;;24.31;56.69;94472.69;4207413;28;20051;-59
2023/07/03 08:19:12;;;;;;;11.65;10.55;;;;;;;24.41;56.78;94468.50;4213830;28;20047;-61
2023/07/03 08:21:13;;;;;;;12.88;10.15;;;;;;;24.39;57.29;94468.72;4213410;28;20048;-60
2023/07/03 08:23:15;;;;;;;12.50;9.73;;;;;;;24.46;57.00;94465.88;4211987;28;20048;-59
2023/07/03 08:25:17;;;;;;;12.60;9.80;;;;;;;24.50;56.14;94478.53;4213999;28;20044;-60
2023/07/03 08:27:19;;;;;;;15.10;10.02;;;;;;;24.44;56.51;94479.50;4210858;28;20068;-59
2023/07/03 08:29:20;;;;;;;12.85;9.38;;;;;;;24.60;56.14;94471.69;4211859;28;20078;-60
2023/07/03 08:31:22;;;;;;;10.68;9.57;;;;;;;24.76;55.92;94473.47;4206799;28;20044;-60
2023/07/03 08:33:24;;;;;;;11.48;9.18;;;;;;;24.92;55.24;94477.06;4205870;28;20052;-63
2023/07/03 08:35:26;;;;;;;10.38;9.05;;;;;;;25.07;55.01;94474.53;4206827;28;20054;-60
2023/07/03 08:37:31;;;;;;;10.73;9.23;;;;;;;25.36;54.33;94476.97;4208157;28;20123;-62
2023/07/03 08:39:33;;;;;;;9.95;8.93;;;;;;;25.69;53.52;94473.16;4207353;28;20040;-60
2023/07/03 08:41:42;;;;;;;12.10;9.77;;;;;;;25.59;52.62;94475.75;4204360;28;20123;-61
2023/07/03 08:43:47;;;;;;;10.98;8.68;;;;;;;25.41;52.98;94478.88;4197595;28;20060;-61
2023/07/03 08:45:51;;;;;;;9.93;8.93;;;;;;;25.46;52.29;94482.38;4205324;28;20052;-61
2023/07/03 08:47:54;;;;;;;14.15;8.85;;;;;;;25.41;52.90;94482.34;4207510;28;20456;-62
2023/07/03 08:49:57;;;;;;;10.20;9.00;;;;;;;25.45;52.59;94482.66;4213452;28;20098;-62
2023/07/03 08:51:59;;;;;;;18.38;8.40;;;;;;;25.68;51.63;94481.44;4196692;28;20205;-58
2023/07/03 08:54:06;;;;;;;12.33;8.77;;;;;;;25.83;51.82;94480.72;4199432;28;20497;-62
2023/07/03 08:56:14;;;;;;;15.68;10.43;;;;;;;25.49;53.27;94483.72;4213029;28;20812;-61
2023/07/03 08:58:15;;;;;;;11.20;9.23;;;;;;;24.66;54.63;94481.38;4205571;28;20056;-61
2023/07/03 09:00:18;;;;;;;18.90;9.52;;;;;;;24.21;55.18;94480.59;4203756;28;20398;-59
2023/07/03 09:02:30;;;;;;;10.50;9.05;;;;;;;24.49;54.83;94484.94;4202233;28;20362;-61
2023/07/03 09:05:09;;;;;;;10.43;9.05;;;;;;;24.43;54.49;94477.88;4206581;28;20627;-61
2023/07/03 09:07:17;;;;;;;9.10;8.20;;;;;;;24.47;54.86;94473.66;4203043;28;20097;-60
2023/07/03 09:09:25;;;;;;;11.95;8.75;;;;;;;24.52;54.61;94476.44;4199472;28;20098;-60
2023/07/03 09:11:29;;;;;;;11.40;8.95;;;;;;;24.72;54.18;94475.03;4206096;28;20059;-60
2023/07/03 09:13:39;;;;;;;13.45;9.27;;;;;;;24.88;53.27;94484.00;4208432;28;21159;-61
2023/07/03 09:15:50;;;;;;;16.40;8.40;;;;;;;25.06;52.41;94472.09;4201402;28;20135;-62
2023/07/03 09:17:53;;;;;;;11.00;8.38;;;;;;;25.39;52.84;94478.31;4210958;28;20671;-60
2023/07/03 09:19:56;;;;;;;9.63;8.25;;;;;;;25.74;51.28;94477.72;4210224;28;20138;-60
2023/07/03 09:22:00;;;;;;;12.63;9.27;;;;;;;25.75;50.98;94482.84;4209705;28;20044;-61
2023/07/03 09:24:14;;;;;;;12.02;8.82;;;;;;;25.86;50.48;94469.50;4210669;28;20058;-60
2023/07/03 09:26:23;;;;;;;9.43;8.43;;;;;;;25.99;49.79;94481.66;4211427;28;20051;-61
2023/07/03 09:28:25;;;;;;;9.38;8.20;;;;;;;26.20;49.48;94486.06;4211362;28;20083;-60